createdAt,value
2023-03-31T00:01:28.325Z,10.56
2023-03-31T00:04:07.243Z,10.58
2023-03-31T00:06:43.337Z,10.57
2023-03-31T00:09:19.137Z,10.57
2023-03-31T00:11:52.883Z,10.60
2023-03-31T00:14:26.711Z,10.57
2023-03-31T00:17:22.631Z,10.54
2023-03-31T00:20:01.802Z,10.53
2023-03-31T00:22:55.163Z,10.49
2023-03-31T00:25:35.337Z,10.49
2023-03-31T00:28:28.249Z,10.49
2023-03-31T00:31:30.017Z,10.50
2023-03-31T00:34:02.686Z,10.51
2023-03-31T00:36:38.006Z,10.58
2023-03-31T00:39:30.674Z,10.65
2023-03-31T00:42:11.866Z,10.69
2023-03-31T00:45:05.977Z,10.75
2023-03-31T00:47:38.721Z,10.79
2023-03-31T00:50:16.800Z,10.81
2023-03-31T00:52:50.421Z,10.82
2023-03-31T00:55:25.988Z,10.81
2023-03-31T00:58:08.122Z,10.81
2023-03-31T01:00:41.926Z,10.75
2023-03-31T01:03:16.266Z,10.74
2023-03-31T01:06:28.660Z,10.73
2023-03-31T01:09:23.232Z,10.70
2023-03-31T01:11:51.534Z,10.66
2023-03-31T01:14:30.569Z,10.63
2023-03-31T01:17:11.537Z,10.61
2023-03-31T01:20:13.369Z,10.56
2023-03-31T01:23:13.184Z,10.53
2023-03-31T01:26:19.738Z,10.49
2023-03-31T01:29:17.483Z,10.46
2023-03-31T01:32:03.976Z,10.44
2023-03-31T01:35:09.608Z,10.46
2023-03-31T01:38:09.012Z,10.54
2023-03-31T01:40:57.049Z,10.57
2023-03-31T01:43:57.463Z,10.63
2023-03-31T01:46:38.586Z,10.69
2023-03-31T01:49:32.674Z,10.72
2023-03-31T01:52:30.037Z,10.76
2023-03-31T01:55:13.714Z,10.78
2023-03-31T01:58:03.000Z,10.81
2023-03-31T02:00:36.801Z,10.82
2023-03-31T02:03:13.145Z,10.81
2023-03-31T02:06:01.311Z,10.81
2023-03-31T02:09:02.122Z,10.80
2023-03-31T02:11:35.013Z,10.79
2023-03-31T02:14:17.645Z,10.76
2023-03-31T02:16:49.074Z,10.76
2023-03-31T02:19:33.186Z,10.74
2023-03-31T02:22:06.323Z,10.72
2023-03-31T02:24:46.886Z,10.72
2023-03-31T02:27:29.798Z,10.74
2023-03-31T02:30:02.950Z,10.76
2023-03-31T02:32:43.909Z,10.79
2023-03-31T02:35:41.845Z,10.78
2023-03-31T02:38:27.204Z,10.83
2023-03-31T02:41:22.098Z,10.88
2023-03-31T02:43:53.050Z,10.91
2023-03-31T02:46:35.029Z,10.94
2023-03-31T02:49:12.456Z,10.96
2023-03-31T02:51:50.088Z,10.93
2023-03-31T02:54:56.107Z,10.90
2023-03-31T02:57:51.343Z,10.87
2023-03-31T03:00:40.877Z,10.81
2023-03-31T03:03:42.761Z,10.78
2023-03-31T03:06:55.025Z,10.80
2023-03-31T03:09:48.258Z,10.80
2023-03-31T03:12:49.846Z,10.75
2023-03-31T03:15:32.096Z,10.72
2023-03-31T03:18:04.771Z,10.69
2023-03-31T03:20:37.908Z,10.69
2023-03-31T03:23:10.744Z,10.69
2023-03-31T03:25:43.995Z,10.72
2023-03-31T03:28:16.794Z,10.76
2023-03-31T03:30:45.525Z,10.76
2023-03-31T03:33:18.789Z,10.76
2023-03-31T03:36:00.956Z,10.76
2023-03-31T03:38:34.110Z,10.74
2023-03-31T03:41:17.417Z,10.70
2023-03-31T03:43:50.230Z,10.69
2023-03-31T03:46:23.271Z,10.69
2023-03-31T03:49:03.512Z,10.65
2023-03-31T03:51:44.762Z,10.62
2023-03-31T03:54:18.732Z,10.64
2023-03-31T03:56:51.593Z,10.66
2023-03-31T03:59:36.357Z,10.65
2023-03-31T04:02:21.486Z,10.65
2023-03-31T04:04:58.041Z,10.64
2023-03-31T04:07:30.884Z,10.61
2023-03-31T04:10:03.641Z,10.57
2023-03-31T04:12:31.680Z,10.55
2023-03-31T04:15:03.248Z,10.55
2023-03-31T04:17:38.315Z,10.51
2023-03-31T04:20:14.905Z,10.50
2023-03-31T04:22:47.599Z,10.44
2023-03-31T04:25:48.848Z,10.42
2023-03-31T04:28:21.521Z,10.37
2023-03-31T04:31:00.236Z,10.36
2023-03-31T04:33:40.505Z,10.33
2023-03-31T04:36:23.854Z,10.31
2023-03-31T04:38:56.050Z,10.29
2023-03-31T04:41:36.297Z,10.20
2023-03-31T04:44:09.237Z,10.20
2023-03-31T04:46:42.357Z,10.18
2023-03-31T04:49:18.053Z,10.18
2023-03-31T04:51:49.152Z,10.17
2023-03-31T04:54:19.956Z,10.15
2023-03-31T04:57:09.322Z,10.11
2023-03-31T04:59:48.056Z,10.05
2023-03-31T05:02:28.824Z,10.03
2023-03-31T05:07:54.402Z,10.04
2023-03-31T05:10:48.435Z,10.01
2023-03-31T05:13:24.022Z,9.95
2023-03-31T05:15:56.772Z,9.87
2023-03-31T05:18:35.634Z,9.82
2023-03-31T05:21:37.571Z,9.77
2023-03-31T05:24:11.011Z,9.77
2023-03-31T05:27:05.904Z,9.77
2023-03-31T05:29:41.609Z,9.77
2023-03-31T05:32:10.508Z,9.78
2023-03-31T05:34:44.684Z,9.74
2023-03-31T05:37:23.932Z,9.75
2023-03-31T05:39:57.417Z,9.79
2023-03-31T05:42:28.253Z,9.78
2023-03-31T05:45:01.182Z,9.79
2023-03-31T05:47:41.938Z,9.77
2023-03-31T05:50:12.472Z,9.79
2023-03-31T05:53:27.150Z,9.78
2023-03-31T05:56:01.795Z,9.77
2023-03-31T05:58:40.633Z,9.78
2023-03-31T06:01:25.568Z,9.76
2023-03-31T06:03:58.575Z,9.77
2023-03-31T06:06:29.962Z,9.75
2023-03-31T06:09:03.108Z,9.75
2023-03-31T06:11:35.923Z,9.73
2023-03-31T06:14:08.814Z,9.72
2023-03-31T06:17:07.368Z,9.72
2023-03-31T06:20:15.919Z,9.63
2023-03-31T06:22:48.992Z,9.57
2023-03-31T06:25:24.781Z,9.55
2023-03-31T06:28:05.362Z,9.48
2023-03-31T06:30:41.431Z,9.53
2023-03-31T06:33:26.021Z,9.55
2023-03-31T06:36:00.872Z,9.58
2023-03-31T06:38:31.920Z,9.62
2023-03-31T06:41:05.363Z,9.63
2023-03-31T06:43:44.883Z,9.63
2023-03-31T06:46:13.711Z,9.69
2023-03-31T06:48:57.194Z,9.84
2023-03-31T06:51:32.435Z,10.16
2023-03-31T06:54:07.956Z,10.31
2023-03-31T06:56:43.834Z,10.28
2023-03-31T06:59:16.722Z,10.46
2023-03-31T07:01:46.900Z,10.47
2023-03-31T07:04:22.372Z,10.32
2023-03-31T07:07:01.132Z,10.22
2023-03-31T07:09:57.641Z,10.26
2023-03-31T07:12:33.681Z,10.48
2023-03-31T07:15:05.983Z,10.75
2023-03-31T07:17:43.389Z,10.96
2023-03-31T07:20:18.015Z,11.18
2023-03-31T07:23:13.882Z,11.36
2023-03-31T07:25:59.741Z,11.49
2023-03-31T07:28:47.665Z,11.66
2023-03-31T07:31:21.914Z,11.85
2023-03-31T07:34:18.589Z,11.89
2023-03-31T07:37:12.650Z,11.83
2023-03-31T07:39:45.579Z,11.76
2023-03-31T07:42:18.356Z,11.63
2023-03-31T07:44:49.356Z,11.49
2023-03-31T07:47:36.646Z,11.42
2023-03-31T07:50:13.355Z,11.38
2023-03-31T07:52:46.663Z,11.36
2023-03-31T07:55:15.497Z,11.37
2023-03-31T07:57:51.213Z,11.39
2023-03-31T08:00:20.720Z,11.45
2023-03-31T08:03:13.860Z,11.49
2023-03-31T08:05:45.459Z,11.56
2023-03-31T08:08:13.388Z,11.59
2023-03-31T08:10:47.752Z,11.62
2023-03-31T08:13:30.821Z,11.66
2023-03-31T08:15:58.836Z,11.86
2023-03-31T08:18:32.598Z,12.18
2023-03-31T08:21:00.791Z,12.49
2023-03-31T08:23:28.921Z,12.75
2023-03-31T08:25:57.682Z,13.03
2023-03-31T08:28:43.036Z,13.37
2023-03-31T08:31:19.838Z,13.65
2023-03-31T08:33:52.903Z,13.85
2023-03-31T08:36:24.214Z,13.70
2023-03-31T08:39:18.474Z,13.63
2023-03-31T08:42:08.828Z,13.81
2023-03-31T08:45:05.745Z,14.11
2023-03-31T08:47:34.238Z,14.38
2023-03-31T08:50:15.542Z,14.39
2023-03-31T08:53:13.308Z,14.34
2023-03-31T08:55:51.277Z,14.28
2023-03-31T08:58:41.420Z,14.62
2023-03-31T09:01:52.200Z,14.96
2023-03-31T09:04:44.672Z,15.07
2023-03-31T09:07:25.130Z,15.21
2023-03-31T09:10:24.164Z,15.39
2023-03-31T09:13:08.336Z,15.45
2023-03-31T09:16:18.137Z,15.46
2023-03-31T09:18:48.227Z,15.32
2023-03-31T09:21:45.019Z,15.16
2023-03-31T09:24:32.087Z,15.09
2023-03-31T09:27:06.895Z,14.91
2023-03-31T09:29:43.998Z,14.74
2023-03-31T09:32:19.912Z,14.65
2023-03-31T09:34:48.693Z,14.77
2023-03-31T09:37:21.500Z,14.78
2023-03-31T09:39:56.250Z,14.72
2023-03-31T09:42:26.357Z,14.58
2023-03-31T09:45:00.473Z,14.35
2023-03-31T09:47:44.018Z,14.16
2023-03-31T09:50:17.708Z,13.95
2023-03-31T09:52:52.847Z,13.48
2023-03-31T09:55:38.805Z,12.80
2023-03-31T09:58:18.038Z,12.79
2023-03-31T10:01:11.439Z,12.75
2023-03-31T10:03:59.990Z,12.68
2023-03-31T10:06:28.462Z,12.70
2023-03-31T10:09:19.221Z,13.00
2023-03-31T10:12:17.567Z,12.97
2023-03-31T10:14:54.959Z,12.84
2023-03-31T10:17:24.865Z,12.77
2023-03-31T10:20:09.006Z,12.68
2023-03-31T10:22:37.757Z,12.52
2023-03-31T10:25:19.268Z,12.48
2023-03-31T10:27:53.989Z,12.52
2023-03-31T10:30:35.076Z,12.84
2023-03-31T10:33:19.241Z,13.27
2023-03-31T10:35:57.880Z,13.55
2023-03-31T10:38:45.005Z,13.87
2023-03-31T10:41:30.226Z,14.05
2023-03-31T10:44:05.733Z,14.41
2023-03-31T10:46:48.021Z,14.74
2023-03-31T10:49:29.249Z,15.11
2023-03-31T10:52:12.507Z,15.35
2023-03-31T10:54:54.688Z,15.35
2023-03-31T10:57:41.375Z,15.23
2023-03-31T11:00:25.955Z,14.83
2023-03-31T11:03:04.040Z,14.56
2023-03-31T11:05:45.028Z,14.39
2023-03-31T11:08:24.626Z,14.22
2023-03-31T11:11:06.454Z,13.95
2023-03-31T11:13:49.812Z,13.59
2023-03-31T11:16:42.642Z,13.32
2023-03-31T11:19:36.357Z,13.25
2023-03-31T11:22:49.932Z,13.08
2023-03-31T11:25:44.840Z,12.95
2023-03-31T11:28:33.297Z,12.70
2023-03-31T11:31:13.150Z,12.48
2023-03-31T11:34:15.075Z,12.47
2023-03-31T11:37:50.927Z,12.35
2023-03-31T11:41:15.686Z,12.21
2023-03-31T11:44:19.528Z,12.00
2023-03-31T11:47:15.830Z,12.05
2023-03-31T11:50:02.675Z,12.12
2023-03-31T11:52:57.741Z,12.15
2023-03-31T11:55:30.370Z,12.27
2023-03-31T11:58:10.075Z,12.79
2023-03-31T12:00:49.900Z,13.76
2023-03-31T12:03:35.037Z,14.57
2023-03-31T12:06:23.314Z,15.19
2023-03-31T12:09:06.887Z,15.71
2023-03-31T12:11:48.248Z,15.98
2023-03-31T12:14:36.630Z,16.32
2023-03-31T12:17:10.703Z,16.91
2023-03-31T12:20:01.105Z,17.25
2023-03-31T12:22:41.151Z,17.50
2023-03-31T12:25:16.383Z,17.71
2023-03-31T12:27:45.528Z,17.88
2023-03-31T12:30:57.464Z,18.00
2023-03-31T12:33:34.176Z,17.66
2023-03-31T12:36:21.922Z,17.10
2023-03-31T12:39:11.390Z,16.52
2023-03-31T12:42:17.165Z,16.21
2023-03-31T12:45:12.450Z,15.82
2023-03-31T12:47:59.434Z,15.48
2023-03-31T12:50:45.670Z,15.29
2023-03-31T12:53:26.653Z,14.76
2023-03-31T12:55:59.268Z,14.24
2023-03-31T12:58:35.504Z,14.08
2023-03-31T13:01:09.306Z,13.96
2023-03-31T13:03:58.563Z,13.82
2023-03-31T13:06:43.003Z,13.86
2023-03-31T13:09:25.506Z,14.25
2023-03-31T13:12:08.638Z,14.61
2023-03-31T13:14:49.962Z,15.26
2023-03-31T13:17:52.929Z,15.80
2023-03-31T13:20:47.626Z,16.32
2023-03-31T13:23:27.328Z,16.51
2023-03-31T13:26:01.466Z,16.36
2023-03-31T13:34:16.616Z,15.71
2023-03-31T13:37:15.802Z,15.38
2023-03-31T13:39:52.705Z,15.27
2023-03-31T13:42:56.198Z,15.28
2023-03-31T13:46:01.844Z,14.83
2023-03-31T13:48:52.283Z,14.58
2023-03-31T13:51:57.791Z,14.43
2023-03-31T13:55:26.471Z,14.25
2023-03-31T13:58:33.707Z,14.10
2023-03-31T14:01:30.295Z,13.79
2023-03-31T14:04:17.191Z,13.75
2023-03-31T14:07:08.980Z,13.77
2023-03-31T14:09:51.005Z,13.78
2023-03-31T14:12:45.939Z,13.65
2023-03-31T14:15:30.285Z,13.69
2023-03-31T14:18:25.045Z,13.65
2023-03-31T14:21:12.773Z,13.54
2023-03-31T14:24:21.057Z,13.41
2023-03-31T14:27:01.312Z,13.39
2023-03-31T14:30:02.731Z,13.38
2023-03-31T14:32:35.820Z,13.56
2023-03-31T14:35:23.811Z,13.64
2023-03-31T14:38:32.286Z,13.78
2023-03-31T14:41:03.464Z,13.62
2023-03-31T14:43:48.381Z,13.54
2023-03-31T14:46:23.551Z,13.43
2023-03-31T14:49:21.346Z,13.47
2023-03-31T14:52:17.996Z,13.33
2023-03-31T14:54:58.008Z,13.65
2023-03-31T14:57:37.280Z,13.57
2023-03-31T15:00:11.434Z,13.79
2023-03-31T15:03:07.556Z,13.88
2023-03-31T15:05:59.045Z,13.98
2023-03-31T15:08:41.277Z,14.02
2023-03-31T15:11:23.380Z,13.91
2023-03-31T15:14:05.425Z,13.77
2023-03-31T15:16:45.816Z,13.69
2023-03-31T15:19:55.612Z,13.42
2023-03-31T15:22:33.344Z,13.14
2023-03-31T15:25:11.407Z,13.16
2023-03-31T15:27:54.256Z,12.90
2023-03-31T15:30:37.559Z,12.21
2023-03-31T15:33:20.858Z,11.86
2023-03-31T15:39:07.958Z,11.27
2023-03-31T15:41:36.455Z,11.09
2023-03-31T15:44:44.384Z,11.05
2023-03-31T15:47:44.862Z,10.93
2023-03-31T15:50:18.322Z,10.81
2023-03-31T15:53:08.458Z,10.70
2023-03-31T15:56:06.617Z,10.62
2023-03-31T15:58:56.539Z,10.57
2023-03-31T16:01:29.408Z,10.55
2023-03-31T16:04:06.376Z,10.54
2023-03-31T16:06:57.380Z,10.50
2023-03-31T16:10:10.509Z,10.56
2023-03-31T16:13:02.893Z,10.53
2023-03-31T16:15:56.868Z,10.44
2023-03-31T16:18:46.592Z,10.38
2023-03-31T16:21:24.216Z,10.13
2023-03-31T16:24:01.906Z,10.17
2023-03-31T16:26:47.809Z,10.15
2023-03-31T16:29:26.517Z,10.14
2023-03-31T16:32:18.393Z,10.08
2023-03-31T16:35:04.391Z,10.12
2023-03-31T16:37:50.876Z,10.12
2023-03-31T16:40:33.266Z,10.00
2023-03-31T16:43:29.240Z,10.02
2023-03-31T16:46:05.408Z,9.78
2023-03-31T16:48:39.498Z,9.77
2023-03-31T16:51:35.699Z,9.64
2023-03-31T16:54:15.414Z,9.68
2023-03-31T16:56:47.234Z,9.62
2023-03-31T16:59:21.182Z,9.58
2023-03-31T17:02:03.069Z,9.52
2023-03-31T17:04:42.929Z,9.54
2023-03-31T17:07:18.896Z,9.61
2023-03-31T17:10:01.915Z,9.61
2023-03-31T17:13:11.136Z,9.59
2023-03-31T17:16:13.392Z,9.63
2023-03-31T17:18:50.844Z,9.54
2023-03-31T17:21:25.156Z,9.53
2023-03-31T17:23:53.666Z,9.50
2023-03-31T17:26:40.825Z,9.50
2023-03-31T17:29:09.110Z,9.55
2023-03-31T17:31:46.369Z,9.50
2023-03-31T17:34:26.347Z,9.50
2023-03-31T17:39:45.038Z,9.45
2023-03-31T17:42:18.536Z,9.50
2023-03-31T17:44:51.674Z,9.51
2023-03-31T17:47:34.663Z,9.51
2023-03-31T17:50:06.137Z,9.51
2023-03-31T17:55:36.471Z,9.52
2023-03-31T17:58:14.995Z,9.51
2023-03-31T18:00:57.758Z,9.49
2023-03-31T18:03:51.588Z,9.48
2023-03-31T18:06:34.544Z,9.49
2023-03-31T18:09:30.799Z,9.52
2023-03-31T18:12:11.042Z,9.52
2023-03-31T18:14:44.710Z,9.56
2023-03-31T18:17:38.392Z,9.53
2023-03-31T18:20:27.938Z,9.52
2023-03-31T18:23:36.544Z,9.53
2023-03-31T18:29:10.677Z,9.56
2023-03-31T18:31:50.078Z,9.59
2023-03-31T18:34:32.563Z,9.60
2023-03-31T18:37:06.945Z,9.61
2023-03-31T18:39:43.470Z,9.62
2023-03-31T18:42:39.624Z,9.59
2023-03-31T18:45:13.873Z,9.58
2023-03-31T18:48:02.104Z,9.57
2023-03-31T18:50:44.584Z,9.58
2023-03-31T18:53:27.796Z,9.57
2023-03-31T18:56:02.913Z,9.55
2023-03-31T18:59:02.199Z,9.56
2023-03-31T19:01:44.692Z,9.55
2023-03-31T19:04:20.652Z,9.51
2023-03-31T19:06:54.772Z,9.51
2023-03-31T19:09:37.092Z,9.49
2023-03-31T19:12:07.781Z,9.42
2023-03-31T19:14:50.634Z,9.22
2023-03-31T19:17:27.213Z,9.24
2023-03-31T19:20:05.711Z,9.16
2023-03-31T19:22:36.018Z,9.07
2023-03-31T19:25:08.432Z,9.05
2023-03-31T19:28:06.815Z,9.02
2023-03-31T19:30:38.392Z,8.93
2023-03-31T19:33:13.079Z,8.89
2023-03-31T19:35:47.232Z,8.91
2023-03-31T19:38:20.067Z,8.89
2023-03-31T19:40:52.954Z,8.88
2023-03-31T19:43:54.702Z,8.87
2023-03-31T19:46:33.731Z,8.89
2023-03-31T19:49:04.496Z,8.94
2023-03-31T19:51:49.906Z,8.91
2023-03-31T19:54:23.033Z,8.94
2023-03-31T19:57:16.696Z,8.97
2023-03-31T19:59:50.545Z,8.94
2023-03-31T20:02:19.316Z,8.96
2023-03-31T20:04:52.991Z,8.98
2023-03-31T20:07:26.097Z,9.01
2023-03-31T20:10:05.729Z,9.00
2023-03-31T20:12:38.770Z,9.03
2023-03-31T20:15:10.528Z,9.01
2023-03-31T20:17:40.654Z,9.01
2023-03-31T20:20:17.518Z,8.99
2023-03-31T20:23:12.002Z,8.97
2023-03-31T20:25:49.855Z,8.92
2023-03-31T20:28:24.176Z,8.95
2023-03-31T20:30:53.189Z,8.96
2023-03-31T20:33:29.289Z,8.98
2023-03-31T20:36:02.845Z,9.01
2023-03-31T20:38:38.141Z,9.01
2023-03-31T20:41:07.074Z,9.05
2023-03-31T20:43:38.174Z,9.08
2023-03-31T20:46:09.968Z,9.14
2023-03-31T20:48:48.013Z,9.09
2023-03-31T20:51:23.389Z,9.06
2023-03-31T20:53:54.241Z,9.08
2023-03-31T20:56:27.988Z,9.08
2023-03-31T20:59:09.951Z,9.09
2023-03-31T21:02:04.041Z,9.07
2023-03-31T21:04:36.866Z,9.07
2023-03-31T21:07:06.556Z,9.07
2023-03-31T21:09:39.718Z,8.94
2023-03-31T21:12:12.900Z,8.93
2023-03-31T21:14:41.110Z,8.93
2023-03-31T21:17:15.395Z,8.90
2023-03-31T21:19:55.872Z,8.89
2023-03-31T21:22:24.334Z,8.85
2023-03-31T21:24:58.285Z,8.83
2023-03-31T21:27:31.531Z,8.80
2023-03-31T21:30:07.864Z,8.82
2023-03-31T21:32:36.226Z,8.84
2023-03-31T21:35:10.005Z,8.83
2023-03-31T21:37:44.807Z,8.82
2023-03-31T21:40:18.512Z,8.85
2023-03-31T21:42:52.476Z,8.88
2023-03-31T21:45:20.967Z,8.83
2023-03-31T21:48:14.211Z,8.87
2023-03-31T21:50:51.469Z,8.92
2023-03-31T21:53:27.414Z,8.93
2023-03-31T21:56:00.294Z,8.92
2023-03-31T21:58:53.513Z,8.95
2023-03-31T22:01:23.038Z,8.97
2023-03-31T22:04:03.112Z,8.99
2023-03-31T22:06:31.538Z,8.99
2023-03-31T22:08:59.974Z,9.03
2023-03-31T22:11:54.031Z,9.05
2023-03-31T22:14:24.930Z,9.05
2023-03-31T22:16:58.995Z,9.09
2023-03-31T22:19:33.358Z,9.09
2023-03-31T22:22:06.985Z,9.11
2023-03-31T22:24:35.249Z,9.09
2023-03-31T22:27:28.872Z,9.09
2023-03-31T22:29:57.309Z,9.06
2023-03-31T22:32:36.172Z,9.06
2023-03-31T22:35:04.803Z,9.09
2023-03-31T22:37:38.768Z,9.05
2023-03-31T22:40:08.460Z,9.09
2023-03-31T22:42:41.332Z,9.02
2023-03-31T22:45:14.724Z,9.03
2023-03-31T22:47:55.255Z,9.07
2023-03-31T22:50:28.752Z,9.06
2023-03-31T22:52:57.071Z,9.03
2023-03-31T22:55:31.131Z,8.98
2023-03-31T22:57:59.520Z,9.01
2023-03-31T23:00:33.464Z,8.97
2023-03-31T23:03:06.363Z,9.00
2023-03-31T23:05:36.894Z,8.98
2023-03-31T23:08:13.326Z,8.92
2023-03-31T23:10:41.615Z,8.97
2023-03-31T23:13:14.629Z,8.93
2023-03-31T23:15:42.762Z,8.89
2023-03-31T23:18:15.566Z,8.90
2023-03-31T23:20:44.262Z,8.82
2023-03-31T23:23:26.565Z,8.79
2023-03-31T23:25:55.087Z,8.82
2023-03-31T23:28:23.531Z,8.77
2023-03-31T23:30:58.361Z,8.80
2023-03-31T23:33:40.589Z,8.82
2023-03-31T23:36:09.778Z,8.82
2023-03-31T23:38:42.921Z,8.84
2023-03-31T23:41:22.080Z,8.88
2023-03-31T23:43:53.065Z,8.87
2023-03-31T23:46:35.251Z,8.83
2023-03-31T23:49:06.247Z,8.83
2023-03-31T23:51:37.326Z,8.86
2023-03-31T23:54:08.106Z,8.80
2023-03-31T23:57:01.384Z,8.80
2023-03-31T23:59:33.074Z,8.73
